Latest Weather Observations for Dalwallinu

IDW60801

Issued at 10:53 pm WST Friday 23 April 2021 (issued every 10 minutes, with the page automatically refreshed every 10 minutes)

About weather observations | Map of weather stations | Latest weather observations for WA | Other Formats
Station Details ID: 008297 Name: DALWALLINU Lat: -30.28 Lon: 116.67 Height: 324.5 m
Data from the previous 72 hours. | See also: Recent months at Dalwallinu
Date/Time
WST
Temp
°C
App
Temp
°C
Dew
Point
°C
Rel
Hum
%
Delta-T
°C
Wind Press
QNH
hPa
Press
MSL
hPa
Rain since
9am
mm
Dir  Spd
km/h
Gust
km/h
Spd
kts
Gust
kts
23/10:30pm 18.0 16.1 6.5 47 5.8 E 6 7 3 4 1020.4 1019.3 0.0
23/10:00pm 18.4 16.4 6.3 45 6.1 ENE 6 6 3 3 1020.4 1019.3 0.0
23/09:30pm 18.7 17.9 6.5 45 6.2 CALM 0 0 0 0 1020.4 1019.3 0.0
23/09:00pm 19.3 18.0 6.1 42 6.6 E 2 7 1 4 1020.2 1019.1 0.0
23/08:30pm 19.3 17.3 6.1 42 6.7 E 6 9 3 5 1020.1 1019.0 0.0
23/08:00pm 19.3 16.4 6.4 43 6.5 ESE 11 13 6 7 1019.9 1018.8 0.0
23/07:30pm 18.9 16.1 7.0 46 6.1 ESE 11 13 6 7 1019.7 1018.6 0.0
23/07:00pm 19.7 17.3 7.1 44 6.5 E 9 13 5 7 1019.6 1018.5 0.0
23/06:30pm 20.9 17.8 7.2 41 7.1 E 13 15 7 8 1019.4 1018.3 0.0
23/06:00pm 21.4 18.5 6.5 38 7.7 ESE 11 13 6 7 1019.2 1018.0 0.0
23/05:30pm 24.4 21.2 5.2 29 9.8 E 11 15 6 8 1018.9 1017.7 0.0
23/05:00pm 25.9 22.8 5.5 27 10.6 ENE 11 15 6 8 1018.8 1017.6 0.0
23/04:30pm 26.5 23.0 5.5 26 11.0 ENE 13 15 7 8 1018.6 1017.4 0.0
23/04:00pm 27.2 24.6 4.3 23 11.7 NE 7 11 4 6 1018.6 1017.4 0.0
23/03:30pm 26.9 24.4 4.6 24 11.5 NE 7 13 4 7 1018.4 1017.2 0.0
23/03:00pm 26.5 23.4 3.7 23 11.5 NE 9 13 5 7 1018.4 1017.2 0.0
23/02:30pm 26.5 22.9 4.9 25 11.2 NNE 13 19 7 10 1018.3 1017.1 0.0
23/02:00pm 26.6 22.1 4.4 24 11.3 NE 17 24 9 13 1018.3 1017.1 0.0
23/01:30pm 26.5 23.5 4.3 24 11.3 NE 9 13 5 7 1018.4 1017.2 0.0
23/01:00pm 26.5 23.4 5.5 26 10.9 N 11 17 6 9 1018.9 1017.7 0.0
23/12:30pm 26.2 22.5 4.6 25 11.1 N 13 20 7 11 1019.4 1018.3 0.0
23/12:00pm 25.4 21.3 6.1 29 10.1 N 17 24 9 13 1020.0 1018.9 0.0
23/11:30am 24.1 19.7 6.4 32 9.3 NNE 19 26 10 14 1020.4 1019.3 0.0
23/11:00am 23.5 18.5 6.3 33 8.9 NNE 22 28 12 15 1020.7 1019.6 0.0
23/10:30am 24.1 19.1 6.4 32 9.3 NNE 22 30 12 16 1020.7 1019.6 0.0
23/10:00am 21.9 18.1 7.7 40 7.5 NNE 17 20 9 11 1021.1 1020.0 0.0
23/09:30am 20.5 15.0 7.5 43 6.8 NE 26 30 14 16 1021.1 1020.0 0.0
23/09:00am 19.5 15.4 7.9 47 6.0 NE 19 24 10 13 1021.2 1020.1 0.0
23/08:30am 17.9 15.0 8.2 53 5.0 ENE 13 17 7 9 1021.2 1020.1 0.0
23/08:00am 16.4 14.7 8.4 59 4.1 ENE 7 9 4 5 1021.0 1019.9 0.0
23/07:30am 15.1 13.0 8.3 64 3.5 E 9 9 5 5 1020.8 1019.7 0.0
23/07:00am 14.0 11.7 7.5 65 3.2 E 9 11 5 6 1020.6 1019.5 0.0
23/06:30am 13.5 10.5 7.9 69 2.8 ESE 13 13 7 7 1020.4 1019.3 0.0
23/06:00am 13.6 11.1 8.0 69 2.8 ESE 11 13 6 7 1020.3 1019.2 0.0
23/05:30am 13.1 10.9 7.8 70 2.7 ESE 9 11 5 6 1020.3 1019.2 0.0
23/05:00am 13.3 10.6 7.5 68 2.9 ESE 11 11 6 6 1020.2 1019.1 0.0
23/04:30am 14.1 11.8 7.6 65 3.3 SE 9 11 5 6 1020.2 1019.1 0.0
23/04:00am 14.2 11.6 7.7 65 3.3 SE 11 11 6 6 1020.1 1019.0 0.0
23/03:30am 14.3 11.4 8.0 66 3.2 SE 13 13 7 7 1020.2 1019.1 0.0
23/03:00am 14.7 12.5 7.7 63 3.5 SE 9 11 5 6 1020.3 1019.2 0.0
23/02:30am 15.4 12.8 7.9 61 3.8 SE 11 13 6 7 1020.4 1019.3 0.0
23/02:00am 15.7 12.8 8.0 60 3.9 SE 13 15 7 8 1020.6 1019.5 0.0
23/01:30am 15.9 12.9 7.7 58 4.2 SE 13 15 7 8 1020.7 1019.6 0.0
23/01:00am 16.4 14.1 7.3 55 4.6 SE 9 11 5 6 1020.8 1019.7 0.0
23/12:30am 16.7 14.0 7.4 54 4.7 SE 11 13 6 7 1020.7 1019.6 0.0
23/12:00am 16.8 14.5 7.4 54 4.8 SE 9 11 5 6 1020.8 1019.7 0.0
 
Date/Time
WST
Temp
°C
App
Temp
°C
Dew
Point
°C
Rel
Hum
%
Delta-T
°C
Wind Press
QNH
hPa
Press
MSL
hPa
Rain since
9am
mm
Dir  Spd
km/h
Gust
km/h
Spd
kts
Gust
kts
22/11:30pm 17.3 14.6 7.4 52 5.1 ESE 11 13 6 7 1021.1 1020.0 0.0
22/11:00pm 17.7 15.1 7.7 52 5.1 ESE 11 15 6 8 1021.5 1020.3 0.0
22/10:30pm 18.1 15.1 7.8 51 5.3 ESE 13 15 7 8 1021.6 1020.4 0.0
22/10:00pm 17.8 15.3 8.1 53 5.0 SE 11 15 6 8 1021.8 1020.6 0.0
22/09:30pm 18.0 15.1 8.3 53 5.1 SE 13 15 7 8 1021.8 1020.6 0.0
22/09:00pm 18.6 15.4 8.3 51 5.4 SE 15 19 8 10 1021.6 1020.4 0.0
22/08:30pm 18.9 15.3 8.3 50 5.6 ESE 17 20 9 11 1021.8 1020.6 0.0
22/08:00pm 19.5 15.7 7.6 46 6.2 SE 17 20 9 11 1021.8 1020.6 0.0
22/07:30pm 21.0 18.9 6.5 39 7.4 SSE 7 11 4 6 1021.5 1020.3 0.0
22/07:00pm 21.7 19.5 6.4 37 7.9 SSE 7 9 4 5 1021.4 1020.2 0.0
22/06:30pm 21.9 21.1 6.6 37 7.9 CALM 0 0 0 0 1021.4 1020.2 0.0
22/06:00pm 22.1 19.9 7.9 40 7.5 ESE 9 11 5 6 1020.5 1019.4 0.0
22/05:30pm 23.4 21.5 6.7 34 8.7 E 6 9 3 5 1020.3 1019.2 0.0
22/05:00pm 24.8 21.7 5.6 29 9.9 E 11 13 6 7 1020.0 1018.9 0.0
22/04:30pm 25.1 21.6 5.3 28 10.2 ENE 13 17 7 9 1020.0 1018.9 0.0
22/04:00pm 25.4 21.8 5.1 27 10.4 NE 13 20 7 11 1020.3 1019.2 0.0
22/03:30pm 25.7 21.8 5.3 27 10.6 NE 15 20 8 11 1020.2 1019.1 0.0
22/03:00pm 25.8 22.2 4.9 26 10.7 NE 13 20 7 11 1020.3 1019.2 0.0
22/02:30pm 25.9 22.3 4.9 26 10.8 NNE 13 20 7 11 1020.6 1019.5 0.0
22/02:00pm 25.8 22.3 5.4 27 10.6 NE 13 20 7 11 1020.8 1019.7 0.0
22/01:30pm 25.4 22.1 6.6 30 9.9 NE 13 20 7 11 1021.1 1020.0 0.0
22/01:00pm 25.2 21.6 6.9 31 9.7 ENE 15 22 8 12 1021.7 1020.5 0.0
22/12:30pm 24.3 19.8 7.0 33 9.2 ENE 20 24 11 13 1022.1 1021.0 0.0
22/12:00pm 24.0 19.2 7.2 34 8.9 ENE 22 32 12 17 1022.5 1021.4 0.0
22/11:30am 23.3 18.5 7.4 36 8.4 ENE 22 28 12 15 1023.0 1021.9 0.0
22/11:00am 22.1 16.6 7.5 39 7.7 NE 26 35 14 19 1023.2 1022.1 0.0
22/10:30am 21.5 15.9 7.3 40 7.4 ENE 26 32 14 17 1023.6 1022.5 0.0
22/10:00am 20.3 14.1 8.0 45 6.4 ENE 30 37 16 20 1023.9 1022.8 0.0
22/09:30am 19.2 13.3 7.6 47 6.0 ENE 28 37 15 20 1024.2 1023.1 0.0
22/09:00am 18.0 12.5 7.4 50 5.4 ENE 26 33 14 18 1024.3 1023.2 0.0
22/08:30am 17.6 12.7 7.1 50 5.3 ENE 22 33 12 18 1024.1 1023.0 0.0
22/08:00am 16.0 12.9 7.2 56 4.4 E 13 20 7 11 1024.0 1022.9 0.0
22/07:30am 14.3 10.8 7.4 63 3.5 E 15 20 8 11 1023.9 1022.8 0.0
22/07:00am 13.2 9.3 7.2 67 3.0 E 17 20 9 11 1023.6 1022.5 0.0
22/06:30am 12.9 9.8 7.1 68 2.9 E 13 17 7 9 1023.6 1022.5 0.0
22/06:00am 11.7 8.9 6.8 72 2.4 E 11 13 6 7 1023.5 1022.4 0.0
22/05:30am 12.2 9.4 6.9 70 2.6 E 11 13 6 7 1023.4 1022.3 0.0
22/05:00am 11.9 8.7 6.8 71 2.5 ESE 13 15 7 8 1023.2 1022.1 0.0
22/04:30am 13.3 10.1 6.9 65 3.1 E 13 19 7 10 1023.0 1021.9 0.0
22/04:00am 13.5 10.0 7.1 65 3.2 ESE 15 20 8 11 1023.0 1021.9 0.0
22/03:30am 13.0 9.4 6.8 66 3.0 ESE 15 19 8 10 1023.1 1022.0 0.0
22/03:00am 12.7 8.8 7.2 69 2.7 ESE 17 19 9 10 1022.9 1021.8 0.0
22/02:30am 12.9 9.0 7.1 68 2.9 SE 17 19 9 10 1023.2 1022.1 0.0
22/02:00am 12.5 9.4 7.4 71 2.5 SE 13 13 7 7 1023.2 1022.1 0.0
22/01:30am 13.5 10.0 7.3 66 3.1 SE 15 17 8 9 1023.2 1022.1 0.0
22/01:00am 13.7 10.2 7.2 65 3.2 SE 15 19 8 10 1023.2 1022.1 0.0
22/12:30am 13.5 10.7 7.1 65 3.2 SSE 11 13 6 7 1023.3 1022.2 0.0
22/12:00am 14.1 11.0 7.2 63 3.4 SSE 13 17 7 9 1023.4 1022.3 0.0
 
Date/Time
WST
Temp
°C
App
Temp
°C
Dew
Point
°C
Rel
Hum
%
Delta-T
°C
Wind Press
QNH
hPa
Press
MSL
hPa
Rain since
9am
mm
Dir  Spd
km/h
Gust
km/h
Spd
kts
Gust
kts
21/11:30pm 14.6 11.5 7.4 62 3.6 SE 13 17 7 9 1023.6 1022.5 0.0
21/11:00pm 14.7 11.4 8.0 64 3.4 SE 15 15 8 8 1023.7 1022.6 0.0
21/10:30pm 15.2 11.6 8.2 63 3.6 SE 17 19 9 10 1024.0 1022.9 0.0
21/10:00pm 15.6 12.0 8.4 62 3.7 SSE 17 19 9 10 1024.1 1023.0 0.0
21/09:30pm 15.6 12.4 8.6 63 3.6 SE 15 17 8 9 1024.0 1022.9 0.0
21/09:00pm 15.5 12.6 8.3 62 3.7 SE 13 13 7 7 1024.1 1023.0 0.0
21/08:30pm 16.0 13.2 8.5 61 3.9 ESE 13 15 7 8 1023.8 1022.7 0.0
21/08:00pm 16.8 14.0 8.5 58 4.3 ESE 13 15 7 8 1023.6 1022.5 0.0
21/07:30pm 17.7 14.1 8.3 54 4.9 SE 17 17 9 9 1023.3 1022.2 0.0
21/07:00pm 18.4 14.8 8.4 52 5.2 SE 17 17 9 9 1023.4 1022.3 0.0
21/06:30pm 19.6 16.0 8.3 48 6.0 SE 17 19 9 10 1023.2 1022.1 0.0
21/06:00pm 20.7 17.0 8.0 44 6.7 SE 17 20 9 11 1022.9 1021.8 0.0
21/05:30pm 22.1 17.4 7.9 40 7.5 SE 22 26 12 14 1022.4 1021.3 0.0
21/05:00pm 23.1 17.4 6.8 35 8.5 SE 26 33 14 18 1022.4 1021.3 0.0
21/04:30pm 23.7 18.8 6.9 34 8.8 SE 22 28 12 15 1022.3 1021.2 0.0
21/04:00pm 23.9 18.7 7.1 34 8.9 SE 24 32 13 17 1022.0 1020.8 0.0
21/03:30pm 24.4 20.5 7.1 33 9.2 ESE 17 26 9 14 1021.9 1020.7 0.0
21/03:00pm 24.0 19.8 7.6 35 8.7 ESE 19 28 10 15 1022.0 1020.8 0.0
21/02:30pm 24.1 20.2 7.3 34 8.9 ESE 17 28 9 15 1021.9 1020.7 0.0
21/02:00pm 24.3 20.8 7.0 33 9.1 ESE 15 26 8 14 1021.9 1020.7 0.0
21/01:30pm 23.7 19.5 7.3 35 8.7 SE 19 24 10 13 1022.1 1021.0 0.0
21/01:00pm 23.3 18.9 6.6 34 8.7 SE 19 32 10 17 1022.3 1021.2 0.0
21/12:30pm 23.6 19.5 7.7 36 8.5 ESE 19 30 10 16 1022.6 1021.5 0.0
21/12:00pm 23.2 19.8 9.2 41 7.6 E 17 26 9 14 1023.0 1021.9 0.0
21/11:30am 22.9 19.0 8.6 40 7.7 E 19 30 10 16 1023.2 1022.1 0.0
21/11:00am 22.3 17.9 8.8 42 7.3 E 22 32 12 17 1023.3 1022.2 0.0
21/10:30am 21.9 17.4 8.4 42 7.2 E 22 30 12 16 1023.7 1022.6 0.0
21/10:00am 21.2 16.5 9.4 47 6.4 E 24 30 13 16 1023.8 1022.7 0.0
21/09:30am 20.3 17.1 10.1 52 5.6 E 17 22 9 12 1023.8 1022.7 0.0
21/09:00am 18.4 15.4 10.5 60 4.3 E 17 20 9 11 1024.1 1023.0 0.0
21/08:30am 16.7 13.7 10.5 67 3.3 ESE 17 22 9 12 1024.1 1023.0 0.0
21/08:00am 14.8 12.1 10.4 75 2.3 SSE 15 19 8 10 1024.0 1022.9 0.0
21/07:30am 12.8 9.9 9.8 82 1.6 S 15 19 8 10 1023.5 1022.4 0.0
21/07:00am 11.9 9.6 9.1 83 1.4 SSE 11 15 6 8 1023.1 1022.0 0.0
21/06:30am 11.5 9.2 8.9 84 1.3 SSE 11 15 6 8 1022.6 1021.5 0.0
21/06:00am 11.8 9.1 8.8 82 1.5 SSE 13 15 7 8 1022.6 1021.5 0.0
21/05:30am 12.3 9.3 9.1 81 1.6 SSE 15 17 8 9 1022.3 1021.2 0.0
21/05:00am 12.1 9.4 8.9 81 1.6 SSE 13 15 7 8 1022.0 1020.8 0.0
21/04:30am 12.2 9.5 8.9 80 1.7 SSE 13 17 7 9 1022.0 1020.8 0.0
21/04:00am 12.8 10.2 9.3 79 1.8 SSE 13 15 7 8 1022.2 1021.1 0.0
21/03:30am 13.2 10.9 9.1 76 2.1 SE 11 13 6 7 1021.9 1020.7 0.0
21/03:00am 13.3 11.4 9.0 75 2.2 SE 9 13 5 7 1021.8 1020.6 0.0
21/02:30am 14.6 13.2 9.4 71 2.7 SSE 7 9 4 5 1021.7 1020.5 0.0
21/02:00am 13.7 11.9 9.4 75 2.2 SSE 9 11 5 6 1021.7 1020.5 0.0
21/01:30am 13.9 13.8 9.3 74 2.4 CALM 0 0 0 0 1021.6 1020.4 0.0
21/01:00am 13.5 11.6 9.0 74 2.3 SE 9 11 5 6 1021.7 1020.5 0.0
21/12:30am 14.0 12.1 9.2 73 2.5 SSE 9 11 5 6 1021.7 1020.5 0.0
21/12:00am 14.5 11.9 9.5 72 2.6 SSE 13 13 7 7 1021.8 1020.6 0.0
 
Date/Time
WST
Temp
°C
App
Temp
°C
Dew
Point
°C
Rel
Hum
%
Delta-T
°C
Wind Press
QNH
hPa
Press
MSL
hPa
Rain since
9am
mm
Dir  Spd
km/h
Gust
km/h
Spd
kts
Gust
kts
20/11:30pm 14.8 11.8 9.4 70 2.8 SSE 15 19 8 10 1021.7 1020.5 0.0
20/11:00pm 15.4 12.4 9.3 67 3.2 SSE 15 17 8 9 1021.7 1020.5 0.0

Other formats

Comma delimited format used in spreadsheet applications
http://www.bom.gov.au/fwo/IDW60801/IDW60801.95629.axf

JavaScript Object Notation format (JSON) in row-major order
http://www.bom.gov.au/fwo/IDW60801/IDW60801.95629.json

Data quality

Most of these data are generated automatically and are frequently updated. Quality checks on data are not normally performed. It is possible for incorrect values to appear. Refer to information at About Latest Weather Observations and please check the disclaimer before using these data.